| time (UTC) | temp F | wind direction | speed knots | gust knots | rain 1hr in | rain 24hr in | rain mn in | humidity % | barometer mb |
| 20260509033103 | 56 | 0 | 0.0 | 4.3 | 0.00 | 0.00 | 0.00 | 84 | 1010.7 |
| 20260509031537 | 57 | 341 | 0.0 | 3.5 | 0.00 | 0.00 | 0.00 | 83 | 1010.9 |
| 20260509030046 | 57 | 5 | 2.6 | 7.8 | 0.00 | 0.00 | 0.00 | 82 | 1011.0 |
| 20260509024554 | 57 | 345 | 2.6 | 7.8 | 0.00 | 0.00 | 0.00 | 81 | 1011.1 |
| 20260509023042 | 59 | 5 | 4.3 | 13.9 | 0.00 | 0.00 | 0.00 | 77 | 1011.1 |
| 20260509021541 | 61 | 200 | 0.0 | 0.9 | 0.00 | 0.00 | 0.00 | 71 | 1010.3 |
| 20260509020041 | 61 | 0 | 0.0 | 0.0 | 0.00 | 0.00 | 0.00 | 71 | 1010.3 |
| 20260509014536 | 62 | 0 | 0.0 | 0.0 | 0.00 | 0.00 | 0.00 | 68 | 1010.2 |
| 20260509013042 | 63 | 0 | 0.0 | 0.9 | 0.00 | 0.00 | 0.00 | 62 | 1010.1 |
| 20260509011546 | 64 | 173 | 0.9 | 3.5 | 0.00 | 0.00 | 0.00 | 59 | 1010.1 |
| 20260509010041 | 65 | 213 | 2.6 | 6.1 | 0.00 | 0.00 | 0.00 | 56 | 1010.3 |
| 20260509004534 | 65 | 216 | 1.7 | 5.2 | 0.00 | 0.00 | 0.00 | 54 | 1009.9 |
| 20260509003036 | 66 | 0 | 0.0 | 3.5 | 0.00 | 0.00 | 0.00 | 53 | 1009.8 |
| 20260509001537 | 66 | 0 | 0.0 | 4.3 | 0.00 | 0.00 | 0.00 | 52 | 1009.8 |
| 20260509000034 | 66 | 201 | 0.0 | 5.2 | 0.00 | 0.00 | 0.00 | 52 | 1010.0 |
| 20260508234534 | 66 | 186 | 1.7 | 6.1 | 0.00 | 0.00 | 0.00 | 50 | 1009.8 |
| 20260508233042 | 67 | 203 | 1.7 | 7.0 | 0.00 | 0.00 | 0.00 | 49 | 1009.7 |
| 20260508231534 | 67 | 0 | 0.9 | 3.5 | 0.00 | 0.00 | 0.00 | 50 | 1009.9 |
| 20260508230035 | 67 | 215 | 1.7 | 6.1 | 0.00 | 0.00 | 0.00 | 49 | 1009.8 |
| 20260508224545 | 67 | 188 | 2.6 | 7.0 | 0.00 | 0.00 | 0.00 | 48 | 1009.7 |
| 20260508223034 | 68 | 207 | 0.9 | 7.0 | 0.00 | 0.00 | 0.00 | 49 | 1009.6 |
| 20260508221540 | 68 | 202 | 1.7 | 7.8 | 0.00 | 0.00 | 0.00 | 49 | 1009.6 |
| 20260508220041 | 68 | 197 | 3.5 | 10.4 | 0.00 | 0.00 | 0.00 | 47 | 1009.5 |
| 20260508214545 | 68 | 192 | 0.9 | 7.8 | 0.00 | 0.00 | 0.00 | 48 | 1009.5 |
| 20260508213041 | 68 | 153 | 1.7 | 7.8 | 0.00 | 0.00 | 0.00 | 47 | 1009.8 |
| 20260508211535 | 69 | 233 | 3.5 | 9.6 | 0.00 | 0.00 | 0.00 | 44 | 1009.7 |
| 20260508210038 | 69 | 141 | 2.6 | 8.7 | 0.00 | 0.00 | 0.00 | 45 | 1009.9 |
| 20260508204541 | 68 | 206 | 2.6 | 7.0 | 0.00 | 0.00 | 0.00 | 45 | 1010.4 |
| 20260508203037 | 68 | 169 | 1.7 | 8.7 | 0.00 | 0.00 | 0.00 | 46 | 1010.8 |
| 20260508201536 | 69 | 271 | 2.6 | 7.0 | 0.00 | 0.00 | 0.00 | 45 | 1010.8 |
| 20260508200035 | 68 | 145 | 1.7 | 5.2 | 0.00 | 0.00 | 0.00 | 44 | 1011.1 |
| 20260508194535 | 68 | 232 | 1.7 | 13.9 | 0.00 | 0.00 | 0.00 | 46 | 1011.2 |
| 20260508193035 | 68 | 140 | 4.3 | 8.7 | 0.00 | 0.00 | 0.00 | 44 | 1011.2 |
| 20260508191547 | 70 | 251 | 4.3 | 11.3 | 0.00 | 0.00 | 0.00 | 41 | 1011.3 |
| 20260508190044 | 71 | 113 | 0.9 | 10.4 | 0.00 | 0.00 | 0.00 | 42 | 1011.6 |
| 20260508184539 | 70 | 221 | 3.5 | 17.4 | 0.00 | 0.00 | 0.00 | 43 | 1011.6 |
| 20260508183036 | 69 | 172 | 3.5 | 14.8 | 0.00 | 0.00 | 0.00 | 44 | 1011.9 |
| 20260508181541 | 69 | 157 | 1.7 | 11.3 | 0.00 | 0.00 | 0.00 | 47 | 1012.3 |
| 20260508180041 | 69 | 182 | 5.2 | 12.2 | 0.00 | 0.00 | 0.00 | 45 | 1012.5 |
| 20260508174541 | 68 | 161 | 3.5 | 11.3 | 0.00 | 0.00 | 0.00 | 44 | 1012.7 |
| 20260508173042 | 68 | 242 | 4.3 | 16.5 | 0.00 | 0.00 | 0.00 | 45 | 1012.9 |
| 20260508171545 | 68 | 141 | 6.1 | 13.0 | 0.00 | 0.00 | 0.00 | 46 | 1013.2 |
| 20260508170043 | 68 | 205 | 5.2 | 13.9 | 0.00 | 0.00 | 0.00 | 47 | 1013.4 |
| 20260508164541 | 66 | 171 | 6.1 | 17.4 | 0.00 | 0.00 | 0.00 | 48 | 1013.7 |
| 20260508163056 | 66 | 235 | 2.6 | 11.3 | 0.00 | 0.00 | 0.00 | 50 | 1014.0 |
| 20260508161549 | 66 | 239 | 2.6 | 10.4 | 0.00 | 0.00 | 0.00 | 50 | 1014.3 |
| 20260508160046 | 65 | 209 | 4.3 | 10.4 | 0.00 | 0.00 | 0.00 | 50 | 1014.3 |
| 20260508154544 | 64 | 146 | 3.5 | 10.4 | 0.00 | 0.00 | 0.00 | 53 | 1014.5 |
| 20260508153056 | 64 | 194 | 3.5 | 10.4 | 0.00 | 0.00 | 0.00 | 53 | 1014.9 |
| 20260508151541 | 63 | 192 | 2.6 | 12.2 | 0.00 | 0.00 | 0.00 | 55 | 1015.1 |
| 20260508150040 | 62 | 159 | 6.1 | 13.9 | 0.00 | 0.00 | 0.00 | 52 | 1015.2 |
| 20260508144540 | 62 | 200 | 2.6 | 12.2 | 0.00 | 0.00 | 0.00 | 54 | 1015.2 |
| 20260508143055 | 61 | 188 | 1.7 | 7.8 | 0.00 | 0.00 | 0.00 | 55 | 1015.2 |
| 20260508141538 | 59 | 220 | 2.6 | 9.6 | 0.00 | 0.00 | 0.00 | 58 | 1015.4 |
| 20260508140045 | 59 | 233 | 1.7 | 7.8 | 0.00 | 0.00 | 0.00 | 60 | 1015.5 |
| 20260508134538 | 57 | 233 | 2.6 | 8.7 | 0.00 | 0.00 | 0.00 | 59 | 1015.6 |
| 20260508133042 | 56 | 202 | 1.7 | 7.0 | 0.00 | 0.00 | 0.00 | 60 | 1015.6 |
| 20260508131542 | 55 | 156 | 3.5 | 7.0 | 0.00 | 0.00 | 0.00 | 61 | 1015.5 |
| 20260508130036 | 54 | 180 | 3.5 | 8.7 | 0.00 | 0.00 | 0.00 | 61 | 1015.4 |
| 20260508124534 | 52 | 200 | 2.6 | 7.8 | 0.00 | 0.00 | 0.00 | 64 | 1015.4 |
| 20260508123046 | 51 | 232 | 2.6 | 8.7 | 0.00 | 0.00 | 0.00 | 65 | 1015.4 |
| 20260508121542 | 51 | 200 | 1.7 | 7.0 | 0.00 | 0.00 | 0.00 | 66 | 1015.4 |
| 20260508120041 | 50 | 182 | 1.7 | 6.1 | 0.00 | 0.00 | 0.00 | 67 | 1015.4 |
| 20260508114540 | 49 | 165 | 1.7 | 6.1 | 0.00 | 0.00 | 0.00 | 68 | 1015.2 |
| 20260508113038 | 49 | 194 | 2.6 | 7.8 | 0.00 | 0.00 | 0.00 | 68 | 1014.9 |
| 20260508111540 | 48 | 227 | 0.9 | 8.7 | 0.00 | 0.00 | 0.00 | 68 | 1014.9 |
| 20260508110036 | 48 | 205 | 1.7 | 4.3 | 0.00 | 0.00 | 0.00 | 68 | 1014.7 |
| 20260508104536 | 48 | 213 | 0.9 | 3.5 | 0.00 | 0.00 | 0.00 | 68 | 1014.6 |
| 20260508103043 | 48 | 205 | 1.7 | 3.5 | 0.00 | 0.00 | 0.00 | 68 | 1014.7 |
| 20260508101536 | 48 | 200 | 0.9 | 4.3 | 0.00 | 0.00 | 0.00 | 69 | 1014.5 |
| 20260508100054 | 48 | 197 | 0.0 | 3.5 | 0.00 | 0.00 | 0.00 | 69 | 1014.6 |
| 20260508094540 | 48 | 202 | 0.0 | 2.6 | 0.00 | 0.00 | 0.00 | 70 | 1014.6 |
| 20260508093041 | 47 | 203 | 0.9 | 4.3 | 0.00 | 0.00 | 0.00 | 72 | 1014.7 |
| 20260508091602 | 47 | 0 | 0.0 | 1.7 | 0.00 | 0.00 | 0.00 | 72 | 1014.7 |
| 20260508090047 | 47 | 0 | 0.0 | 4.3 | 0.00 | 0.00 | 0.00 | 70 | 1014.7 |
| 20260508084534 | 47 | 0 | 0.0 | 2.6 | 0.00 | 0.00 | 0.00 | 70 | 1014.7 |
| 20260508083036 | 47 | 188 | 0.0 | 2.6 | 0.00 | 0.00 | 0.00 | 69 | 1014.5 |
| 20260508081545 | 47 | 0 | 0.0 | 2.6 | 0.00 | 0.00 | 0.00 | 68 | 1014.5 |
| 20260508080035 | 47 | 187 | 0.0 | 2.6 | 0.00 | 0.00 | 0.00 | 69 | 1014.4 |
| 20260508074537 | 46 | 0 | 0.0 | 2.6 | 0.00 | 0.00 | 0.00 | 70 | 1014.5 |
| 20260508073045 | 47 | 207 | 0.0 | 1.7 | 0.00 | 0.00 | 0.00 | 70 | 1014.5 |
| 20260508071539 | 47 | 0 | 0.0 | 0.9 | 0.00 | 0.00 | 0.00 | 68 | 1014.7 |
| 20260508070036 | 48 | 0 | 0.0 | 2.6 | 0.00 | 0.00 | 0.00 | 67 | 1014.7 |
| 20260508064537 | 48 | 193 | 0.9 | 3.5 | 0.00 | 0.00 | 0.00 | 67 | 1014.7 |
| 20260508063036 | 48 | 0 | 0.9 | 3.5 | 0.00 | 0.00 | 0.00 | 67 | 1015.2 |
| 20260508061542 | 49 | 0 | 0.9 | 3.5 | 0.00 | 0.00 | 0.00 | 66 | 1015.4 |
| 20260508060055 | 48 | 258 | 0.0 | 2.6 | 0.00 | 0.00 | 0.00 | 66 | 1015.4 |
| 20260508054611 | 49 | 0 | 0.0 | 3.5 | 0.00 | 0.00 | 0.00 | 66 | 1015.3 |
| 20260508053049 | 48 | 196 | 0.0 | 2.6 | 0.00 | 0.00 | 0.00 | 66 | 1015.4 |
| 20260508051535 | 48 | 0 | 0.0 | 1.7 | 0.00 | 0.00 | 0.00 | 66 | 1015.3 |
| 20260508050035 | 49 | 0 | 0.0 | 2.6 | 0.00 | 0.00 | 0.00 | 65 | 1015.2 |
| 20260508044541 | 49 | 0 | 0.0 | 2.6 | 0.00 | 0.00 | 0.00 | 65 | 1015.1 |
| 20260508043040 | 48 | 0 | 0.0 | 4.3 | 0.00 | 0.00 | 0.00 | 67 | 1015.2 |
| 20260508041543 | 47 | 0 | 0.0 | 1.7 | 0.00 | 0.00 | 0.00 | 68 | 1015.2 |
| 20260508040036 | 47 | 0 | 0.0 | 3.5 | 0.00 | 0.00 | 0.00 | 72 | 1015.1 |
| 20260508034543 | 46 | 270 | 0.0 | 1.7 | 0.00 | 0.00 | 0.00 | 75 | 1015.1 |